createdAt,value
2023-02-13T00:00:10.146Z,2.60
2023-02-13T00:02:37.033Z,2.60
2023-02-13T00:05:03.787Z,2.60
2023-02-13T00:07:30.664Z,2.50
2023-02-13T00:09:57.578Z,2.40
2023-02-13T00:12:24.292Z,2.40
2023-02-13T00:14:51.065Z,2.40
2023-02-13T00:17:17.928Z,2.40
2023-02-13T00:19:44.713Z,2.30
2023-02-13T00:22:11.770Z,2.30
2023-02-13T00:24:38.484Z,2.30
2023-02-13T00:27:05.205Z,2.30
2023-02-13T00:29:31.930Z,2.20
2023-02-13T00:31:58.752Z,2.30
2023-02-13T00:34:25.532Z,2.30
2023-02-13T00:36:52.413Z,2.30
2023-02-13T00:39:19.240Z,2.30
2023-02-13T00:41:48.039Z,2.20
2023-02-13T00:44:14.724Z,2.30
2023-02-13T00:46:41.506Z,2.30
2023-02-13T00:49:08.361Z,2.30
2023-02-13T00:51:35.250Z,2.40
2023-02-13T00:54:02.074Z,2.30
2023-02-13T00:56:28.812Z,2.20
2023-02-13T00:58:55.517Z,2.50
2023-02-13T01:01:25.019Z,2.30
2023-02-13T01:03:51.845Z,2.20
2023-02-13T01:06:18.678Z,2.20
2023-02-13T01:08:45.453Z,2.30
2023-02-13T01:11:12.257Z,2.20
2023-02-13T01:13:39.202Z,2.00
2023-02-13T01:16:06.189Z,2.10
2023-02-13T01:18:33.100Z,2.10
2023-02-13T01:21:02.013Z,2.10
2023-02-13T01:23:32.602Z,2.20
2023-02-13T01:25:59.720Z,2.20
2023-02-13T01:28:26.657Z,2.30
2023-02-13T01:30:54.373Z,2.30
2023-02-13T01:33:26.252Z,2.40
2023-02-13T01:35:53.549Z,2.30
2023-02-13T01:38:20.279Z,2.40
2023-02-13T01:40:50.854Z,2.30
2023-02-13T01:43:17.647Z,2.30
2023-02-13T01:45:46.125Z,2.30
2023-02-13T01:48:15.105Z,2.20
2023-02-13T01:50:48.545Z,2.20
2023-02-13T01:53:25.465Z,2.10
2023-02-13T01:56:01.686Z,2.10
2023-02-13T01:58:31.076Z,2.00
2023-02-13T02:00:59.397Z,1.90
2023-02-13T02:03:29.471Z,2.00
2023-02-13T02:06:02.924Z,1.90
2023-02-13T02:08:30.690Z,1.90
2023-02-13T02:11:00.498Z,2.00
2023-02-13T02:13:29.611Z,1.80
2023-02-13T02:16:02.671Z,1.80
2023-02-13T02:18:29.756Z,1.70
2023-02-13T02:21:17.497Z,1.60
2023-02-13T02:24:03.833Z,1.60
2023-02-13T02:26:39.224Z,1.70
2023-02-13T02:29:21.356Z,1.70
2023-02-13T02:31:48.197Z,1.80
2023-02-13T02:34:24.590Z,1.80
2023-02-13T02:36:51.405Z,1.70
2023-02-13T02:39:21.928Z,1.70
2023-02-13T02:41:51.661Z,1.60
2023-02-13T02:44:20.276Z,1.70
2023-02-13T02:47:28.892Z,1.60
2023-02-13T02:50:01.999Z,1.70
2023-02-13T02:52:28.842Z,1.60
2023-02-13T02:55:06.470Z,1.60
2023-02-13T02:57:58.036Z,1.60
2023-02-13T03:00:44.368Z,1.60
2023-02-13T03:03:37.796Z,1.60
2023-02-13T03:06:12.173Z,1.60
2023-02-13T03:08:59.132Z,1.60
2023-02-13T03:11:44.504Z,1.60
2023-02-13T03:14:13.617Z,1.70
2023-02-13T03:16:59.568Z,1.80
2023-02-13T03:19:45.059Z,1.80
2023-02-13T03:22:28.359Z,1.90
2023-02-13T03:24:55.193Z,1.90
2023-02-13T03:27:59.757Z,2.00
2023-02-13T03:30:45.574Z,2.10
2023-02-13T03:33:15.215Z,2.10
2023-02-13T03:36:00.821Z,2.10
2023-02-13T03:38:37.956Z,2.30
2023-02-13T03:41:21.284Z,2.30
2023-02-13T03:44:06.557Z,2.30
2023-02-13T03:46:37.093Z,2.20
2023-02-13T03:49:24.047Z,2.10
2023-02-13T03:51:56.458Z,2.20
2023-02-13T03:54:44.436Z,2.20
2023-02-13T03:57:31.026Z,2.10
2023-02-13T03:59:58.646Z,2.10
2023-02-13T04:02:30.446Z,2.00
2023-02-13T04:05:04.737Z,2.10
2023-02-13T04:07:32.144Z,2.10
2023-02-13T04:10:00.744Z,2.00
2023-02-13T04:12:46.521Z,2.00
2023-02-13T04:15:13.343Z,2.00
2023-02-13T04:17:43.772Z,2.00
2023-02-13T04:20:11.501Z,2.10
2023-02-13T04:22:45.582Z,2.30
2023-02-13T04:25:13.696Z,2.20
2023-02-13T04:27:40.457Z,2.30
2023-02-13T04:30:07.570Z,2.20
2023-02-13T04:32:34.249Z,2.30
2023-02-13T04:35:01.035Z,2.30
2023-02-13T04:37:27.735Z,2.40
2023-02-13T04:39:54.512Z,2.30
2023-02-13T04:42:21.236Z,2.30
2023-02-13T04:44:48.044Z,2.30
2023-02-13T04:47:14.796Z,2.30
2023-02-13T04:49:41.587Z,2.40
2023-02-13T04:52:08.397Z,2.40
2023-02-13T04:54:35.073Z,2.30
2023-02-13T04:57:01.849Z,2.20
2023-02-13T04:59:28.550Z,2.20
2023-02-13T05:01:55.422Z,2.30
2023-02-13T05:04:22.364Z,2.40
2023-02-13T05:06:49.152Z,2.30
2023-02-13T05:09:15.837Z,2.20
2023-02-13T05:11:42.589Z,2.30
2023-02-13T05:14:10.115Z,2.20
2023-02-13T05:16:36.847Z,2.10
2023-02-13T05:19:03.562Z,2.10
2023-02-13T05:21:49.121Z,2.20
2023-02-13T05:24:15.898Z,2.20
2023-02-13T05:26:42.575Z,2.30
2023-02-13T05:29:19.131Z,2.30
2023-02-13T05:31:53.537Z,2.20
2023-02-13T05:34:20.879Z,2.10
2023-02-13T05:36:47.721Z,2.00
2023-02-13T05:39:15.365Z,2.00
2023-02-13T05:41:42.588Z,2.10
2023-02-13T05:44:09.452Z,2.20
2023-02-13T05:46:38.448Z,2.20
2023-02-13T05:49:06.368Z,2.20
2023-02-13T05:51:33.305Z,2.10
2023-02-13T05:54:00.059Z,2.00
2023-02-13T05:56:27.062Z,2.10
2023-02-13T05:58:57.156Z,2.00
2023-02-13T06:01:24.328Z,2.10
2023-02-13T06:03:51.536Z,2.00
2023-02-13T06:06:18.352Z,2.00
2023-02-13T06:08:45.122Z,2.00
2023-02-13T06:11:11.802Z,2.00
2023-02-13T06:13:40.770Z,1.90
2023-02-13T06:16:08.434Z,1.90
2023-02-13T06:18:35.382Z,2.00
2023-02-13T06:21:02.318Z,2.00
2023-02-13T06:23:29.615Z,1.90
2023-02-13T06:25:56.758Z,2.00
2023-02-13T06:28:23.598Z,2.00
2023-02-13T06:30:50.476Z,2.00
2023-02-13T06:33:17.248Z,1.90
2023-02-13T06:35:44.004Z,1.80
2023-02-13T06:38:10.802Z,1.90
2023-02-13T06:40:37.509Z,1.90
2023-02-13T06:43:04.298Z,1.80
2023-02-13T06:45:31.100Z,1.80
2023-02-13T06:47:57.896Z,1.70
2023-02-13T06:50:24.624Z,1.80
2023-02-13T06:52:51.775Z,1.80
2023-02-13T06:55:18.588Z,1.70
2023-02-13T06:57:45.517Z,1.70
2023-02-13T07:00:13.856Z,1.70
2023-02-13T07:02:41.177Z,1.70
2023-02-13T07:05:09.226Z,1.60
2023-02-13T07:07:36.916Z,1.70
2023-02-13T07:10:04.176Z,1.60
2023-02-13T07:12:32.697Z,1.60
2023-02-13T07:14:59.541Z,1.60
2023-02-13T07:17:26.792Z,1.60
2023-02-13T07:19:53.563Z,1.60
2023-02-13T07:22:20.920Z,1.60
2023-02-13T07:24:47.667Z,1.50
2023-02-13T07:27:14.403Z,1.60
2023-02-13T07:29:41.152Z,1.70
2023-02-13T07:32:09.117Z,1.70
2023-02-13T07:34:35.851Z,1.60
2023-02-13T07:37:02.582Z,1.70
2023-02-13T07:39:29.266Z,1.70
2023-02-13T07:41:56.002Z,1.80
2023-02-13T07:44:25.842Z,1.80
2023-02-13T07:46:52.644Z,1.80
2023-02-13T07:49:19.373Z,1.80
2023-02-13T07:51:46.124Z,1.80
2023-02-13T07:54:13.698Z,1.80
2023-02-13T07:56:40.480Z,1.90
2023-02-13T07:59:08.057Z,2.00
2023-02-13T08:01:34.961Z,1.90
2023-02-13T08:04:01.889Z,1.90
2023-02-13T08:06:28.664Z,1.80
2023-02-13T08:09:15.317Z,1.90
2023-02-13T08:11:54.302Z,1.90
2023-02-13T08:14:25.035Z,1.90
2023-02-13T08:16:52.298Z,2.10
2023-02-13T08:19:19.181Z,2.10
2023-02-13T08:21:45.986Z,2.20
2023-02-13T08:24:12.767Z,2.20
2023-02-13T08:26:39.693Z,2.20
2023-02-13T08:29:06.847Z,2.20
2023-02-13T08:31:33.661Z,2.30
2023-02-13T08:34:00.427Z,2.30
2023-02-13T08:36:27.162Z,2.40
2023-02-13T08:38:54.007Z,2.50
2023-02-13T08:41:23.781Z,2.60
2023-02-13T08:43:50.710Z,2.50
2023-02-13T08:46:18.024Z,2.50
2023-02-13T08:48:44.825Z,2.50
2023-02-13T08:51:12.405Z,2.70
2023-02-13T08:53:40.523Z,2.80
2023-02-13T08:56:07.273Z,3.00
2023-02-13T08:58:34.181Z,3.00
2023-02-13T09:01:04.161Z,3.00
2023-02-13T09:03:31.075Z,3.00
2023-02-13T09:06:01.710Z,3.30
2023-02-13T09:08:28.927Z,3.40
2023-02-13T09:10:56.848Z,3.60
2023-02-13T09:13:23.562Z,3.60
2023-02-13T09:15:50.315Z,3.50
2023-02-13T09:18:17.123Z,3.70
2023-02-13T09:20:43.882Z,3.70
2023-02-13T09:23:10.617Z,3.40
2023-02-13T09:25:37.301Z,3.50
2023-02-13T09:28:04.106Z,3.40
2023-02-13T09:30:30.856Z,3.50
2023-02-13T09:32:57.716Z,3.80
2023-02-13T09:35:24.554Z,4.60
2023-02-13T09:37:51.273Z,5.80
2023-02-13T09:40:21.051Z,6.80
2023-02-13T09:42:49.035Z,8.40
2023-02-13T09:45:17.149Z,8.60
2023-02-13T09:47:44.354Z,8.90
2023-02-13T09:50:14.231Z,10.20
2023-02-13T09:52:43.305Z,10.80
2023-02-13T09:55:18.415Z,11.60
2023-02-13T09:57:51.875Z,12.00
2023-02-13T10:00:25.666Z,12.50
2023-02-13T10:02:58.322Z,11.20
2023-02-13T10:05:44.381Z,10.70
2023-02-13T10:08:18.383Z,10.20
2023-02-13T10:10:48.328Z,10.10
2023-02-13T10:13:25.927Z,11.00
2023-02-13T10:16:09.791Z,12.60
2023-02-13T10:18:59.884Z,13.30
2023-02-13T10:21:28.306Z,14.40
2023-02-13T10:23:55.141Z,15.00
2023-02-13T10:26:23.786Z,15.90
2023-02-13T10:29:38.504Z,16.40
2023-02-13T10:32:07.187Z,16.30
2023-02-13T10:34:37.561Z,16.90
2023-02-13T10:37:06.032Z,15.90
2023-02-13T10:39:32.734Z,16.40
2023-02-13T10:42:08.732Z,16.30
2023-02-13T10:44:44.842Z,15.50
2023-02-13T10:47:30.215Z,14.60
2023-02-13T10:50:16.164Z,15.20
2023-02-13T10:52:52.466Z,15.20
2023-02-13T10:55:38.490Z,14.60
2023-02-13T10:58:23.852Z,13.40
2023-02-13T11:00:56.702Z,14.00
2023-02-13T11:03:25.011Z,14.50
2023-02-13T11:05:52.505Z,14.20
2023-02-13T11:08:25.330Z,14.30
2023-02-13T11:10:52.918Z,14.20
2023-02-13T11:13:21.576Z,14.90
2023-02-13T11:16:08.354Z,15.20
2023-02-13T11:18:37.886Z,15.60
2023-02-13T11:21:08.945Z,15.80
2023-02-13T11:23:38.604Z,15.50
2023-02-13T11:26:10.388Z,15.60
2023-02-13T11:28:56.208Z,15.40
2023-02-13T11:31:23.096Z,16.40
2023-02-13T11:33:50.056Z,16.30
2023-02-13T11:36:24.701Z,16.50
2023-02-13T11:39:05.307Z,16.90
2023-02-13T11:41:37.547Z,16.70
2023-02-13T11:44:04.965Z,16.20
2023-02-13T11:46:44.056Z,17.00
2023-02-13T11:49:21.855Z,18.30
2023-02-13T11:51:50.119Z,18.40
2023-02-13T11:54:35.722Z,18.90
2023-02-13T11:57:17.564Z,18.20
2023-02-13T11:59:46.276Z,18.50
2023-02-13T12:02:20.522Z,17.60
2023-02-13T12:04:48.625Z,17.90
2023-02-13T12:07:35.749Z,18.50
2023-02-13T12:10:05.734Z,18.40
2023-02-13T12:12:35.329Z,18.60
2023-02-13T12:15:14.944Z,18.30
2023-02-13T12:17:44.360Z,19.00
2023-02-13T12:20:12.590Z,18.40
2023-02-13T12:22:55.578Z,18.90
2023-02-13T12:25:35.196Z,19.00
2023-02-13T12:28:08.090Z,19.00
2023-02-13T12:30:40.826Z,18.00
2023-02-13T12:33:07.620Z,17.60
2023-02-13T12:35:57.073Z,17.60
2023-02-13T12:38:33.083Z,18.30
2023-02-13T12:41:20.014Z,17.20
2023-02-13T12:43:52.860Z,16.90
2023-02-13T12:46:29.864Z,16.80
2023-02-13T12:49:07.007Z,16.20
2023-02-13T12:52:03.360Z,16.90
2023-02-13T12:54:45.673Z,17.40
2023-02-13T12:57:12.452Z,16.50
2023-02-13T12:59:57.741Z,16.80
2023-02-13T13:02:43.361Z,16.60
2023-02-13T13:05:27.387Z,16.90
2023-02-13T13:08:05.128Z,16.60
2023-02-13T13:10:34.929Z,16.80
2023-02-13T13:13:08.852Z,17.00
2023-02-13T13:15:53.755Z,16.40
2023-02-13T13:18:32.187Z,16.00
2023-02-13T13:20:59.330Z,16.80
2023-02-13T13:23:49.323Z,17.90
2023-02-13T13:26:32.381Z,18.60
2023-02-13T13:29:00.083Z,19.70
2023-02-13T13:31:28.118Z,18.90
2023-02-13T13:33:56.101Z,18.60
2023-02-13T13:36:43.076Z,19.20
2023-02-13T13:39:09.879Z,19.60
2023-02-13T13:41:42.704Z,20.50
2023-02-13T13:44:18.704Z,19.50
2023-02-13T13:47:03.876Z,19.70
2023-02-13T13:49:37.213Z,20.40
2023-02-13T13:52:21.346Z,19.30
2023-02-13T13:54:54.153Z,19.10
2023-02-13T13:57:28.420Z,19.00
2023-02-13T13:59:56.856Z,20.00
2023-02-13T14:02:23.624Z,20.10
2023-02-13T14:05:09.639Z,20.10
2023-02-13T14:07:38.164Z,19.30
2023-02-13T14:10:06.167Z,18.30
2023-02-13T14:12:32.993Z,17.20
2023-02-13T14:15:00.002Z,15.80
2023-02-13T14:17:45.324Z,14.90
2023-02-13T14:20:30.876Z,14.50
2023-02-13T14:23:06.071Z,14.10
2023-02-13T14:25:32.910Z,14.20
2023-02-13T14:28:00.633Z,13.80
2023-02-13T14:30:27.585Z,13.30
2023-02-13T14:32:54.413Z,12.90
2023-02-13T14:35:24.740Z,12.60
2023-02-13T14:37:55.160Z,12.90
2023-02-13T14:40:22.304Z,12.60
2023-02-13T14:42:57.745Z,12.50
2023-02-13T14:45:27.353Z,12.60
2023-02-13T14:47:56.441Z,12.20
2023-02-13T14:50:41.870Z,12.10
2023-02-13T14:53:15.668Z,12.10
2023-02-13T14:55:43.389Z,11.80
2023-02-13T14:58:17.089Z,11.60
2023-02-13T15:01:02.605Z,11.60
2023-02-13T15:03:44.984Z,11.60
2023-02-13T15:06:33.306Z,11.30
2023-02-13T15:09:02.086Z,11.50
2023-02-13T15:11:39.820Z,11.30
2023-02-13T15:14:35.844Z,11.30
2023-02-13T15:17:02.620Z,11.40
2023-02-13T15:19:29.522Z,11.30
2023-02-13T15:22:00.620Z,11.30
2023-02-13T15:24:36.697Z,11.20
2023-02-13T15:27:05.188Z,11.00
2023-02-13T15:29:47.586Z,11.00
2023-02-13T15:32:20.364Z,11.20
2023-02-13T15:34:48.238Z,11.10
2023-02-13T15:37:25.351Z,11.10
2023-02-13T15:39:52.129Z,11.00
2023-02-13T15:42:18.946Z,10.90
2023-02-13T15:44:47.313Z,10.80
2023-02-13T15:47:26.572Z,10.90
2023-02-13T15:49:53.477Z,10.70
2023-02-13T15:52:23.039Z,10.50
2023-02-13T15:54:51.162Z,10.30
2023-02-13T15:57:18.335Z,10.10
2023-02-13T15:59:45.743Z,9.90
2023-02-13T16:02:15.108Z,9.70
2023-02-13T16:04:42.321Z,9.60
2023-02-13T16:07:11.420Z,9.50
2023-02-13T16:09:38.217Z,9.40
2023-02-13T16:12:17.986Z,9.30
2023-02-13T16:14:48.578Z,9.20
2023-02-13T16:17:34.643Z,9.10
2023-02-13T16:20:17.225Z,9.10
2023-02-13T16:22:44.143Z,8.80
2023-02-13T16:25:10.825Z,8.70
2023-02-13T16:27:41.380Z,8.60
2023-02-13T16:30:20.112Z,8.50
2023-02-13T16:32:47.338Z,8.40
2023-02-13T16:35:17.137Z,8.40
2023-02-13T16:37:57.962Z,8.20
2023-02-13T16:40:35.121Z,8.10
2023-02-13T16:43:21.300Z,8.10
2023-02-13T16:45:48.221Z,7.80
2023-02-13T16:48:15.478Z,7.70
2023-02-13T16:50:42.680Z,7.60
2023-02-13T16:53:09.458Z,7.50
2023-02-13T16:55:36.383Z,7.50
2023-02-13T16:58:06.384Z,7.50
2023-02-13T17:00:33.247Z,7.40
2023-02-13T17:03:00.000Z,7.20
2023-02-13T17:05:28.378Z,7.10
2023-02-13T17:08:00.445Z,7.00
2023-02-13T17:10:28.978Z,6.80
2023-02-13T17:12:56.761Z,6.70
2023-02-13T17:15:24.831Z,6.40
2023-02-13T17:17:51.859Z,6.60
2023-02-13T17:20:20.354Z,6.60
2023-02-13T17:22:48.156Z,6.60
2023-02-13T17:25:17.419Z,6.60
2023-02-13T17:27:44.266Z,6.50
2023-02-13T17:30:15.525Z,6.50
2023-02-13T17:32:42.873Z,6.50
2023-02-13T17:35:10.358Z,6.50
2023-02-13T17:37:37.428Z,6.30
2023-02-13T17:40:04.330Z,6.30
2023-02-13T17:42:31.206Z,6.20
2023-02-13T17:44:58.351Z,6.30
2023-02-13T17:47:25.653Z,6.20
2023-02-13T17:49:59.197Z,6.00
2023-02-13T17:52:31.840Z,6.00
2023-02-13T17:54:58.635Z,5.90
2023-02-13T17:57:25.536Z,5.90
2023-02-13T17:59:52.296Z,5.90
2023-02-13T18:02:20.395Z,5.90
2023-02-13T18:04:47.518Z,5.80
2023-02-13T18:07:16.173Z,5.80
2023-02-13T18:09:43.226Z,5.80
2023-02-13T18:12:14.307Z,5.70
2023-02-13T18:14:41.382Z,5.70
2023-02-13T18:17:08.306Z,5.70
2023-02-13T18:19:35.201Z,5.60
2023-02-13T18:22:01.873Z,5.60
2023-02-13T18:24:32.495Z,5.50
2023-02-13T18:26:59.319Z,5.50
2023-02-13T18:29:26.490Z,5.50
2023-02-13T18:31:54.424Z,5.50
2023-02-13T18:34:22.136Z,5.40
2023-02-13T18:36:49.331Z,5.30
2023-02-13T18:39:16.927Z,5.30
2023-02-13T18:41:43.875Z,5.30
2023-02-13T18:44:17.318Z,5.00
2023-02-13T18:46:50.184Z,4.90
2023-02-13T18:49:17.196Z,4.90
2023-02-13T18:51:44.450Z,4.80
2023-02-13T18:54:11.162Z,4.70
2023-02-13T18:56:37.983Z,4.70
2023-02-13T18:59:04.887Z,4.80
2023-02-13T19:01:31.746Z,4.60
2023-02-13T19:03:58.666Z,4.70
2023-02-13T19:06:25.609Z,4.60
2023-02-13T19:08:52.367Z,4.50
2023-02-13T19:11:22.474Z,4.50
2023-02-13T19:13:49.203Z,4.50
2023-02-13T19:16:17.452Z,4.50
2023-02-13T19:18:45.411Z,4.50
2023-02-13T19:21:13.055Z,4.40
2023-02-13T19:23:40.099Z,4.30
2023-02-13T19:26:13.874Z,4.20
2023-02-13T19:28:40.727Z,4.20
2023-02-13T19:31:18.758Z,4.20
2023-02-13T19:33:46.032Z,4.10
2023-02-13T19:36:14.136Z,4.10
2023-02-13T19:38:42.899Z,3.90
2023-02-13T19:41:11.092Z,3.70
2023-02-13T19:43:38.229Z,3.70
2023-02-13T19:46:05.891Z,3.80
2023-02-13T19:48:32.677Z,3.70
2023-02-13T19:50:59.748Z,3.70
2023-02-13T19:53:26.669Z,3.70
2023-02-13T19:56:00.189Z,3.60
2023-02-13T19:58:26.985Z,3.50
2023-02-13T20:00:53.857Z,3.50
2023-02-13T20:03:20.632Z,3.40
2023-02-13T20:05:47.383Z,3.30
2023-02-13T20:08:14.367Z,3.30
2023-02-13T20:10:45.322Z,3.20
2023-02-13T20:13:12.378Z,3.00
2023-02-13T20:15:39.784Z,3.10
2023-02-13T20:18:06.580Z,3.00
2023-02-13T20:20:33.402Z,2.90
2023-02-13T20:23:00.104Z,2.90
2023-02-13T20:25:31.991Z,2.80
2023-02-13T20:27:59.011Z,2.80
2023-02-13T20:30:25.919Z,2.80
2023-02-13T20:32:52.867Z,2.80
2023-02-13T20:35:19.584Z,2.70
2023-02-13T20:37:46.395Z,2.70
2023-02-13T20:40:13.194Z,2.70
2023-02-13T20:42:39.932Z,2.60
2023-02-13T20:45:07.098Z,2.50
2023-02-13T20:47:33.935Z,2.50
2023-02-13T20:50:00.632Z,2.60
2023-02-13T20:52:27.919Z,2.50
2023-02-13T20:54:54.676Z,2.40
2023-02-13T20:57:21.530Z,2.40
2023-02-13T20:59:48.454Z,2.30
2023-02-13T21:02:15.254Z,2.20
2023-02-13T21:04:42.033Z,2.20
2023-02-13T21:07:09.389Z,2.10
2023-02-13T21:09:39.229Z,2.00
2023-02-13T21:12:06.097Z,2.00
2023-02-13T21:14:32.848Z,2.00
2023-02-13T21:16:59.543Z,1.80
2023-02-13T21:19:26.299Z,1.70
2023-02-13T21:21:53.004Z,1.70
2023-02-13T21:24:22.836Z,1.60
2023-02-13T21:26:51.860Z,1.60
2023-02-13T21:29:19.177Z,1.60
2023-02-13T21:31:49.504Z,1.60
2023-02-13T21:34:17.193Z,1.60
2023-02-13T21:36:44.179Z,1.50
2023-02-13T21:39:11.468Z,1.50
2023-02-13T21:41:42.394Z,1.50
2023-02-13T21:44:10.972Z,1.60
2023-02-13T21:46:37.706Z,1.40
2023-02-13T21:49:05.190Z,1.50
2023-02-13T21:51:32.890Z,1.50
2023-02-13T21:54:01.123Z,1.30
2023-02-13T21:56:29.098Z,1.30
2023-02-13T21:58:56.551Z,1.20
2023-02-13T22:01:27.241Z,1.20
2023-02-13T22:04:00.509Z,1.30
2023-02-13T22:06:31.898Z,1.20
2023-02-13T22:08:59.994Z,1.10
2023-02-13T22:11:27.118Z,1.20
2023-02-13T22:13:54.527Z,1.10
2023-02-13T22:16:21.388Z,1.10
2023-02-13T22:18:50.504Z,1.00
2023-02-13T22:21:18.415Z,1.00
2023-02-13T22:23:45.472Z,0.90
2023-02-13T22:26:20.233Z,1.00
2023-02-13T22:28:47.240Z,0.90
2023-02-13T22:31:14.443Z,0.80
2023-02-13T22:33:42.756Z,1.00
2023-02-13T22:36:09.657Z,0.90
2023-02-13T22:38:37.372Z,0.80
2023-02-13T22:41:05.143Z,0.80
2023-02-13T22:43:32.047Z,0.70
2023-02-13T22:46:08.052Z,0.60
2023-02-13T22:48:35.677Z,0.60
2023-02-13T22:51:03.519Z,0.60
2023-02-13T22:53:30.471Z,0.60
2023-02-13T22:55:57.335Z,0.70
2023-02-13T22:58:24.135Z,0.60
2023-02-13T23:00:51.068Z,0.60
2023-02-13T23:03:17.926Z,0.60
2023-02-13T23:05:44.599Z,0.60
2023-02-13T23:08:11.340Z,0.50
2023-02-13T23:10:38.045Z,0.60
2023-02-13T23:13:06.711Z,0.60
2023-02-13T23:15:34.499Z,0.50
2023-02-13T23:18:14.364Z,0.50
2023-02-13T23:20:42.957Z,0.40
2023-02-13T23:23:10.339Z,0.40
2023-02-13T23:25:37.664Z,0.50
2023-02-13T23:28:05.798Z,0.40
2023-02-13T23:30:32.513Z,0.50
2023-02-13T23:32:59.811Z,0.40
2023-02-13T23:35:26.830Z,0.40
2023-02-13T23:37:53.803Z,0.30
2023-02-13T23:40:20.840Z,0.30
2023-02-13T23:42:47.754Z,0.30
2023-02-13T23:45:14.500Z,0.30
2023-02-13T23:47:41.284Z,0.30
2023-02-13T23:50:08.602Z,0.30
2023-02-13T23:52:35.432Z,0.30
2023-02-13T23:55:02.182Z,0.20
2023-02-13T23:57:29.244Z,0.20
2023-02-13T23:59:55.979Z,0.20
